createdAt,value
2023-02-14T00:01:30.451Z,74.93
2023-02-14T00:04:01.561Z,75.33
2023-02-14T00:06:29.846Z,75.08
2023-02-14T00:08:57.838Z,75.00
2023-02-14T00:11:25.817Z,75.16
2023-02-14T00:14:11.023Z,74.73
2023-02-14T00:16:38.930Z,74.41
2023-02-14T00:19:08.929Z,74.12
2023-02-14T00:21:39.462Z,73.71
2023-02-14T00:24:10.193Z,73.77
2023-02-14T00:26:39.629Z,73.72
2023-02-14T00:29:10.296Z,73.82
2023-02-14T00:31:38.801Z,73.70
2023-02-14T00:34:09.118Z,73.52
2023-02-14T00:36:37.521Z,73.49
2023-02-14T00:39:06.200Z,72.89
2023-02-14T00:41:34.887Z,72.97
2023-02-14T00:44:03.236Z,73.44
2023-02-14T00:46:31.200Z,73.25
2023-02-14T00:48:59.574Z,72.83
2023-02-14T00:51:29.227Z,72.92
2023-02-14T00:53:57.200Z,73.30
2023-02-14T00:56:25.108Z,73.02
2023-02-14T00:58:53.013Z,72.60
2023-02-14T01:01:21.649Z,72.56
2023-02-14T01:03:49.624Z,72.12
2023-02-14T01:06:19.875Z,72.58
2023-02-14T01:08:49.156Z,72.12
2023-02-14T01:11:19.703Z,72.35
2023-02-14T01:13:49.357Z,72.09
2023-02-14T01:16:20.356Z,71.97
2023-02-14T01:18:49.635Z,71.61
2023-02-14T01:21:20.374Z,71.78
2023-02-14T01:23:53.119Z,72.01
2023-02-14T01:26:22.644Z,71.47
2023-02-14T01:28:50.951Z,72.24
2023-02-14T01:31:20.661Z,72.23
2023-02-14T01:33:50.420Z,71.66
2023-02-14T01:36:20.193Z,71.46
2023-02-14T01:38:48.848Z,71.90
2023-02-14T01:41:18.218Z,72.15
2023-02-14T01:43:55.837Z,71.57
2023-02-14T01:46:26.044Z,72.04
2023-02-14T01:48:56.568Z,71.61
2023-02-14T01:51:24.755Z,71.12
2023-02-14T01:53:55.591Z,71.24
2023-02-14T01:56:29.759Z,71.28
2023-02-14T01:59:01.614Z,71.59
2023-02-14T02:01:31.373Z,71.15
2023-02-14T02:04:07.963Z,71.50
2023-02-14T02:06:41.341Z,71.22
2023-02-14T02:09:14.180Z,71.02
2023-02-14T02:11:44.291Z,71.43
2023-02-14T02:14:15.879Z,70.87
2023-02-14T02:17:09.301Z,71.62
2023-02-14T02:20:08.986Z,70.41
2023-02-14T02:23:08.518Z,71.02
2023-02-14T02:26:00.774Z,70.99
2023-02-14T02:29:10.239Z,70.55
2023-02-14T02:32:06.903Z,70.44
2023-02-14T02:35:13.369Z,70.30
2023-02-14T02:37:50.484Z,70.49
2023-02-14T02:40:30.602Z,70.69
2023-02-14T02:43:11.170Z,70.60
2023-02-14T02:46:00.808Z,70.60
2023-02-14T02:48:37.999Z,70.36
2023-02-14T02:51:41.009Z,70.00
2023-02-14T02:54:15.725Z,70.01
2023-02-14T02:56:51.234Z,70.07
2023-02-14T02:59:23.200Z,69.75
2023-02-14T03:01:59.588Z,70.07
2023-02-14T03:04:45.947Z,69.53
2023-02-14T03:07:33.237Z,69.55
2023-02-14T03:10:03.069Z,69.49
2023-02-14T03:13:16.932Z,69.29
2023-02-14T03:16:24.539Z,69.71
2023-02-14T03:19:45.016Z,69.46
2023-02-14T03:22:28.612Z,69.49
2023-02-14T03:25:05.143Z,69.00
2023-02-14T03:27:39.859Z,69.14
2023-02-14T03:30:15.682Z,68.78
2023-02-14T03:32:48.923Z,68.92
2023-02-14T03:35:23.823Z,69.19
2023-02-14T03:38:00.957Z,68.91
2023-02-14T03:40:33.710Z,68.40
2023-02-14T03:43:07.701Z,68.13
2023-02-14T03:45:39.276Z,68.34
2023-02-14T03:48:11.944Z,68.42
2023-02-14T03:50:42.614Z,67.93
2023-02-14T03:53:13.846Z,68.75
2023-02-14T03:55:47.845Z,68.04
2023-02-14T03:58:20.465Z,68.75
2023-02-14T04:00:51.776Z,68.06
2023-02-14T04:03:21.333Z,68.29
2023-02-14T04:05:52.388Z,68.31
2023-02-14T04:08:27.000Z,68.24
2023-02-14T04:10:58.097Z,68.54
2023-02-14T04:13:26.252Z,68.36
2023-02-14T04:15:54.347Z,68.42
2023-02-14T04:18:39.822Z,68.96
2023-02-14T04:21:07.699Z,68.23
2023-02-14T04:23:37.162Z,68.62
2023-02-14T04:26:05.470Z,68.10
2023-02-14T04:28:33.684Z,68.40
2023-02-14T04:31:03.626Z,68.50
2023-02-14T04:33:32.198Z,68.28
2023-02-14T04:36:00.173Z,68.59
2023-02-14T04:38:28.000Z,68.55
2023-02-14T04:40:57.433Z,68.19
2023-02-14T04:43:25.388Z,68.57
2023-02-14T04:45:53.281Z,68.10
2023-02-14T04:48:21.210Z,68.67
2023-02-14T04:50:52.865Z,68.23
2023-02-14T04:53:20.729Z,68.59
2023-02-14T04:55:50.280Z,67.93
2023-02-14T04:58:19.611Z,68.39
2023-02-14T05:00:48.005Z,68.56
2023-02-14T05:03:16.014Z,68.50
2023-02-14T05:05:43.880Z,68.45
2023-02-14T05:08:11.775Z,67.85
2023-02-14T05:10:39.611Z,68.33
2023-02-14T05:13:07.622Z,67.88
2023-02-14T05:15:38.541Z,68.23
2023-02-14T05:18:06.706Z,68.68
2023-02-14T05:20:34.543Z,68.21
2023-02-14T05:23:05.124Z,68.63
2023-02-14T05:25:33.275Z,68.77
2023-02-14T05:28:01.140Z,68.30
2023-02-14T05:30:30.296Z,68.55
2023-02-14T05:32:59.870Z,68.60
2023-02-14T05:35:28.017Z,68.67
2023-02-14T05:37:55.904Z,67.98
2023-02-14T05:40:26.715Z,68.01
2023-02-14T05:42:55.885Z,68.15
2023-02-14T05:45:24.340Z,67.80
2023-02-14T05:47:52.564Z,67.50
2023-02-14T05:50:21.900Z,67.71
2023-02-14T05:52:49.741Z,67.70
2023-02-14T05:55:17.640Z,68.05
2023-02-14T05:57:45.482Z,67.92
2023-02-14T06:00:14.710Z,67.81
2023-02-14T06:02:42.701Z,68.41
2023-02-14T06:05:10.562Z,68.10
2023-02-14T06:07:39.744Z,67.88
2023-02-14T06:10:09.862Z,68.15
2023-02-14T06:12:37.830Z,67.48
2023-02-14T06:15:06.368Z,68.02
2023-02-14T06:17:34.226Z,67.66
2023-02-14T06:20:02.076Z,68.09
2023-02-14T06:22:30.723Z,68.21
2023-02-14T06:25:00.094Z,67.69
2023-02-14T06:27:29.505Z,68.05
2023-02-14T06:29:57.877Z,68.43
2023-02-14T06:32:26.030Z,68.87
2023-02-14T06:34:53.948Z,69.01
2023-02-14T06:37:21.898Z,68.65
2023-02-14T06:39:49.950Z,68.46
2023-02-14T06:42:19.344Z,68.63
2023-02-14T06:44:47.255Z,68.59
2023-02-14T06:47:15.524Z,67.98
2023-02-14T06:49:43.439Z,68.43
2023-02-14T06:52:11.708Z,68.28
2023-02-14T06:54:39.530Z,67.92
2023-02-14T06:57:07.473Z,67.74
2023-02-14T06:59:37.003Z,67.90
2023-02-14T07:02:04.933Z,67.94
2023-02-14T07:04:32.910Z,67.93
2023-02-14T07:07:01.464Z,67.90
2023-02-14T07:09:30.058Z,67.95
2023-02-14T07:11:57.874Z,67.86
2023-02-14T07:14:25.916Z,67.43
2023-02-14T07:16:55.170Z,67.81
2023-02-14T07:19:23.090Z,67.16
2023-02-14T07:21:50.890Z,67.33
2023-02-14T07:24:18.750Z,67.13
2023-02-14T07:26:46.677Z,66.62
2023-02-14T07:29:14.513Z,67.16
2023-02-14T07:31:42.584Z,67.19
2023-02-14T07:34:12.116Z,66.40
2023-02-14T07:36:40.102Z,66.76
2023-02-14T07:39:08.012Z,67.44
2023-02-14T07:41:35.887Z,67.57
2023-02-14T07:44:07.083Z,67.54
2023-02-14T07:46:35.029Z,67.58
2023-02-14T07:49:02.981Z,67.58
2023-02-14T07:51:32.234Z,67.66
2023-02-14T07:54:00.397Z,67.23
2023-02-14T07:56:28.284Z,67.04
2023-02-14T07:58:56.435Z,67.07
2023-02-14T08:01:24.519Z,67.46
2023-02-14T08:03:52.755Z,67.01
2023-02-14T08:06:21.520Z,66.04
2023-02-14T08:08:50.778Z,66.00
2023-02-14T08:11:32.593Z,65.70
2023-02-14T08:14:00.454Z,64.83
2023-02-14T08:16:28.361Z,64.85
2023-02-14T08:18:56.332Z,64.87
2023-02-14T08:21:24.141Z,64.51
2023-02-14T08:23:53.436Z,63.90
2023-02-14T08:26:21.256Z,64.54
2023-02-14T08:28:49.164Z,63.33
2023-02-14T08:31:34.452Z,62.75
2023-02-14T08:34:02.899Z,63.10
2023-02-14T08:36:30.787Z,62.51
2023-02-14T08:39:00.032Z,62.84
2023-02-14T08:41:28.200Z,61.63
2023-02-14T08:43:56.076Z,62.23
2023-02-14T08:46:24.052Z,61.84
2023-02-14T08:48:53.418Z,62.27
2023-02-14T08:51:22.705Z,62.13
2023-02-14T08:53:51.927Z,62.12
2023-02-14T08:56:22.651Z,62.94
2023-02-14T08:58:54.015Z,62.60
2023-02-14T09:01:22.135Z,61.71
2023-02-14T09:03:50.609Z,62.00
2023-02-14T09:06:18.790Z,61.09
2023-02-14T09:08:47.479Z,61.42
2023-02-14T09:11:18.508Z,60.94
2023-02-14T09:13:48.241Z,60.12
2023-02-14T09:16:18.299Z,60.46
2023-02-14T09:18:47.420Z,60.32
2023-02-14T09:21:17.082Z,60.19
2023-02-14T09:23:45.090Z,59.68
2023-02-14T09:26:15.269Z,59.46
2023-02-14T09:28:43.419Z,59.33
2023-02-14T09:31:15.290Z,59.97
2023-02-14T09:34:01.826Z,59.91
2023-02-14T09:36:47.301Z,59.59
2023-02-14T09:39:15.201Z,59.97
2023-02-14T09:42:11.313Z,59.96
2023-02-14T09:44:43.438Z,60.11
2023-02-14T09:47:35.021Z,58.05
2023-02-14T09:50:05.867Z,57.65
2023-02-14T09:52:34.347Z,58.42
2023-02-14T09:55:03.930Z,58.39
2023-02-14T09:57:42.550Z,57.88
2023-02-14T10:00:27.078Z,56.32
2023-02-14T10:03:04.686Z,56.20
2023-02-14T10:05:39.214Z,56.05
2023-02-14T10:08:24.108Z,56.72
2023-02-14T10:11:01.724Z,56.75
2023-02-14T10:13:36.414Z,58.25
2023-02-14T10:16:13.127Z,58.21
2023-02-14T10:18:47.535Z,56.94
2023-02-14T10:21:23.714Z,57.38
2023-02-14T10:23:57.290Z,58.12
2023-02-14T10:26:29.094Z,57.96
2023-02-14T10:28:57.317Z,57.20
2023-02-14T10:31:27.272Z,58.12
2023-02-14T10:33:59.580Z,58.33
2023-02-14T10:36:42.384Z,58.09
2023-02-14T10:39:27.107Z,58.50
2023-02-14T10:42:01.361Z,58.03
2023-02-14T10:44:43.509Z,57.67
2023-02-14T10:47:33.435Z,57.24
2023-02-14T10:50:12.065Z,57.24
2023-02-14T10:52:45.639Z,57.32
2023-02-14T10:55:31.545Z,58.14
2023-02-14T10:58:05.154Z,57.13
2023-02-14T11:00:35.820Z,57.61
2023-02-14T11:03:08.233Z,57.62
2023-02-14T11:05:41.191Z,56.90
2023-02-14T11:08:16.159Z,57.66
2023-02-14T11:10:44.177Z,57.74
2023-02-14T11:13:30.759Z,58.21
2023-02-14T11:16:03.758Z,58.03
2023-02-14T11:18:36.221Z,58.87
2023-02-14T11:21:09.162Z,58.03
2023-02-14T11:23:40.118Z,58.69
2023-02-14T11:26:12.936Z,58.51
2023-02-14T11:28:55.346Z,58.32
2023-02-14T11:31:29.483Z,58.21
2023-02-14T11:33:58.916Z,58.51
2023-02-14T11:36:30.298Z,58.32
2023-02-14T11:39:04.401Z,58.19
2023-02-14T11:41:49.177Z,58.11
2023-02-14T11:44:22.648Z,59.20
2023-02-14T11:46:53.550Z,58.16
2023-02-14T11:49:29.115Z,57.67
2023-02-14T11:51:59.887Z,58.57
2023-02-14T11:54:35.980Z,57.61
2023-02-14T11:57:07.928Z,57.61
2023-02-14T11:59:41.694Z,57.79
2023-02-14T12:02:21.742Z,57.63
2023-02-14T12:04:52.956Z,57.37
2023-02-14T12:07:26.167Z,56.84
2023-02-14T12:10:09.970Z,56.87
2023-02-14T12:12:37.862Z,57.61
2023-02-14T12:15:24.121Z,57.62
2023-02-14T12:17:57.700Z,57.39
2023-02-14T12:20:39.122Z,56.93
2023-02-14T12:23:14.678Z,56.62
2023-02-14T12:25:48.006Z,57.26
2023-02-14T12:28:21.059Z,57.01
2023-02-14T12:30:50.674Z,56.72
2023-02-14T12:33:20.784Z,56.97
2023-02-14T12:35:56.326Z,56.31
2023-02-14T12:38:39.944Z,56.97
2023-02-14T12:41:22.256Z,55.55
2023-02-14T12:43:52.416Z,56.09
2023-02-14T12:46:55.791Z,55.85
2023-02-14T12:49:49.452Z,54.56
2023-02-14T12:52:34.238Z,54.83
2023-02-14T12:55:20.366Z,54.75
2023-02-14T12:57:52.811Z,53.92
2023-02-14T13:00:31.709Z,53.68
2023-02-14T13:03:15.321Z,53.32
2023-02-14T13:05:55.436Z,53.53
2023-02-14T13:08:42.137Z,53.45
2023-02-14T13:11:20.727Z,53.16
2023-02-14T13:14:04.228Z,53.21
2023-02-14T13:16:40.465Z,52.47
2023-02-14T13:19:18.915Z,52.70
2023-02-14T13:21:48.084Z,53.22
2023-02-14T13:24:21.022Z,52.37
2023-02-14T13:26:55.392Z,52.42
2023-02-14T13:29:25.549Z,52.62
2023-02-14T13:31:57.195Z,52.40
2023-02-14T13:34:31.559Z,52.70
2023-02-14T13:37:01.616Z,52.05
2023-02-14T13:39:37.795Z,51.70
2023-02-14T13:42:08.543Z,51.51
2023-02-14T13:44:44.108Z,51.52
2023-02-14T13:47:19.341Z,51.21
2023-02-14T13:49:49.806Z,51.23
2023-02-14T13:52:42.578Z,51.52
2023-02-14T13:55:17.802Z,51.48
2023-02-14T13:57:48.288Z,50.96
2023-02-14T14:00:43.939Z,51.38
2023-02-14T14:03:16.352Z,50.90
2023-02-14T14:06:02.229Z,50.97
2023-02-14T14:08:45.643Z,50.37
2023-02-14T14:11:59.661Z,50.50
2023-02-14T14:14:37.295Z,50.12
2023-02-14T14:17:20.708Z,50.26
2023-02-14T14:19:48.792Z,49.92
2023-02-14T14:22:17.688Z,50.00
2023-02-14T14:25:07.405Z,50.11
2023-02-14T14:27:37.274Z,49.94
2023-02-14T14:30:16.925Z,50.34
2023-02-14T14:32:46.472Z,50.58
2023-02-14T14:35:19.981Z,50.46
2023-02-14T14:37:49.876Z,50.45
2023-02-14T14:40:24.865Z,49.70
2023-02-14T14:42:54.953Z,50.47
2023-02-14T14:45:27.364Z,50.68
2023-02-14T14:47:57.397Z,50.92
2023-02-14T14:50:27.813Z,51.01
2023-02-14T14:52:58.689Z,51.06
2023-02-14T14:55:30.063Z,50.68
2023-02-14T14:58:00.581Z,50.63
2023-02-14T15:00:33.417Z,50.57
2023-02-14T15:03:05.078Z,50.50
2023-02-14T15:05:35.234Z,50.76
2023-02-14T15:08:23.406Z,50.75
2023-02-14T15:10:55.376Z,50.70
2023-02-14T15:13:49.055Z,51.35
2023-02-14T15:16:28.203Z,51.17
2023-02-14T15:18:59.955Z,51.40
2023-02-14T15:21:29.007Z,51.36
2023-02-14T15:23:56.933Z,51.41
2023-02-14T15:26:29.936Z,51.35
2023-02-14T15:28:59.972Z,51.68
2023-02-14T15:31:32.594Z,52.25
2023-02-14T15:34:02.694Z,52.60
2023-02-14T15:36:32.288Z,53.23
2023-02-14T15:39:02.373Z,53.72
2023-02-14T15:41:30.379Z,53.57
2023-02-14T15:43:58.803Z,54.22
2023-02-14T15:46:33.752Z,54.73
2023-02-14T15:49:06.963Z,54.72
2023-02-14T15:51:36.421Z,54.95
2023-02-14T15:54:07.562Z,55.51
2023-02-14T15:56:42.787Z,55.74
2023-02-14T15:59:18.256Z,56.41
2023-02-14T16:01:54.214Z,56.71
2023-02-14T16:04:27.129Z,57.44
2023-02-14T16:07:08.853Z,57.21
2023-02-14T16:09:37.702Z,58.59
2023-02-14T16:12:33.080Z,58.93
2023-02-14T16:15:18.727Z,58.79
2023-02-14T16:17:49.172Z,58.64
2023-02-14T16:20:39.913Z,59.58
2023-02-14T16:23:26.311Z,60.04
2023-02-14T16:25:57.204Z,59.34
2023-02-14T16:28:28.632Z,59.77
2023-02-14T16:30:58.743Z,60.10
2023-02-14T16:33:29.981Z,60.53
2023-02-14T16:36:06.272Z,60.34
2023-02-14T16:38:41.565Z,61.21
2023-02-14T16:41:16.133Z,60.69
2023-02-14T16:43:44.011Z,60.63
2023-02-14T16:46:14.196Z,61.73
2023-02-14T16:48:45.336Z,61.29
2023-02-14T16:51:15.202Z,61.68
2023-02-14T16:53:44.293Z,61.85
2023-02-14T16:56:16.483Z,62.05
2023-02-14T16:58:44.954Z,62.02
2023-02-14T17:01:12.873Z,62.49
2023-02-14T17:03:42.464Z,62.62
2023-02-14T17:06:15.951Z,62.21
2023-02-14T17:08:44.833Z,62.94
2023-02-14T17:11:13.077Z,62.54
2023-02-14T17:13:44.405Z,63.15
2023-02-14T17:16:15.630Z,62.93
2023-02-14T17:18:47.695Z,63.59
2023-02-14T17:21:18.254Z,62.59
2023-02-14T17:23:46.069Z,62.79
2023-02-14T17:26:14.271Z,62.75
2023-02-14T17:28:42.120Z,62.96
2023-02-14T17:31:10.079Z,62.52
2023-02-14T17:33:38.937Z,62.16
2023-02-14T17:36:10.726Z,62.38
2023-02-14T17:38:43.409Z,61.90
2023-02-14T17:41:12.996Z,62.77
2023-02-14T17:43:40.883Z,62.74
2023-02-14T17:46:08.867Z,62.74
2023-02-14T17:48:36.772Z,62.84
2023-02-14T17:51:06.456Z,62.44
2023-02-14T17:53:34.352Z,62.30
2023-02-14T17:56:07.216Z,62.58
2023-02-14T17:58:35.421Z,62.80
2023-02-14T18:01:04.895Z,62.33
2023-02-14T18:03:33.108Z,62.48
2023-02-14T18:06:01.820Z,62.68
2023-02-14T18:08:31.012Z,62.41
2023-02-14T18:10:59.058Z,62.46
2023-02-14T18:13:28.506Z,62.86
2023-02-14T18:15:56.444Z,62.36
2023-02-14T18:18:25.979Z,62.88
2023-02-14T18:20:54.961Z,62.80
2023-02-14T18:23:23.013Z,62.90
2023-02-14T18:25:54.335Z,62.59
2023-02-14T18:28:24.796Z,62.75
2023-02-14T18:30:54.262Z,63.34
2023-02-14T18:33:22.997Z,63.04
2023-02-14T18:35:52.058Z,62.96
2023-02-14T18:38:20.436Z,63.36
2023-02-14T18:40:48.558Z,63.20
2023-02-14T18:43:16.379Z,63.00
2023-02-14T18:45:44.276Z,63.19
2023-02-14T18:48:13.588Z,63.34
2023-02-14T18:50:42.023Z,63.21
2023-02-14T18:53:09.875Z,63.59
2023-02-14T18:55:38.053Z,63.35
2023-02-14T18:58:07.856Z,63.51
2023-02-14T19:00:35.882Z,63.56
2023-02-14T19:03:03.812Z,63.49
2023-02-14T19:05:33.858Z,63.58
2023-02-14T19:08:03.577Z,63.68
2023-02-14T19:10:31.682Z,63.95
2023-02-14T19:12:59.711Z,64.13
2023-02-14T19:15:28.418Z,64.21
2023-02-14T19:17:56.369Z,63.67
2023-02-14T19:20:24.317Z,64.00
2023-02-14T19:22:53.817Z,64.55
2023-02-14T19:25:21.815Z,64.80
2023-02-14T19:27:49.749Z,64.47
2023-02-14T19:30:18.198Z,64.75
2023-02-14T19:32:46.039Z,64.92
2023-02-14T19:35:13.968Z,64.83
2023-02-14T19:37:42.126Z,64.86
2023-02-14T19:40:12.124Z,64.95
2023-02-14T19:42:40.034Z,64.96
2023-02-14T19:45:08.629Z,64.67
2023-02-14T19:47:46.571Z,64.47
2023-02-14T19:50:15.326Z,64.71
2023-02-14T19:52:43.903Z,64.71
2023-02-14T19:55:21.686Z,64.51
2023-02-14T19:57:49.513Z,64.61
2023-02-14T20:00:18.283Z,64.49
2023-02-14T20:02:48.149Z,64.33
2023-02-14T20:05:17.558Z,64.58
2023-02-14T20:07:49.148Z,64.61
2023-02-14T20:10:18.794Z,64.77
2023-02-14T20:12:46.670Z,64.74
2023-02-14T20:15:14.530Z,64.61
2023-02-14T20:17:42.397Z,64.62
2023-02-14T20:20:13.636Z,64.61
2023-02-14T20:22:41.690Z,65.07
2023-02-14T20:25:10.477Z,65.41
2023-02-14T20:27:39.746Z,65.31
2023-02-14T20:30:09.107Z,65.41
2023-02-14T20:32:37.201Z,65.44
2023-02-14T20:35:05.516Z,65.19
2023-02-14T20:37:33.446Z,65.21
2023-02-14T20:40:01.378Z,65.48
2023-02-14T20:42:29.234Z,65.90
2023-02-14T20:44:58.506Z,65.97
2023-02-14T20:47:26.387Z,65.96
2023-02-14T20:49:54.294Z,66.21
2023-02-14T20:52:22.293Z,66.48
2023-02-14T20:54:50.218Z,66.31
2023-02-14T20:57:18.176Z,66.35
2023-02-14T20:59:46.201Z,66.38
2023-02-14T21:02:15.875Z,66.55
2023-02-14T21:04:43.743Z,66.82
2023-02-14T21:07:11.641Z,67.13
2023-02-14T21:09:39.715Z,67.18
2023-02-14T21:12:08.434Z,67.51
2023-02-14T21:14:36.381Z,67.30
2023-02-14T21:17:05.390Z,67.02
2023-02-14T21:19:34.675Z,67.63
2023-02-14T21:22:02.623Z,67.89
2023-02-14T21:24:30.554Z,67.71
2023-02-14T21:26:58.616Z,68.05
2023-02-14T21:29:26.818Z,68.46
2023-02-14T21:31:54.863Z,68.07
2023-02-14T21:34:23.003Z,68.65
2023-02-14T21:36:56.019Z,68.56
2023-02-14T21:39:27.337Z,68.52
2023-02-14T21:41:56.293Z,68.63
2023-02-14T21:44:38.224Z,68.72
2023-02-14T21:47:06.190Z,68.72
2023-02-14T21:49:51.806Z,69.26
2023-02-14T21:52:21.144Z,69.26
2023-02-14T21:54:49.104Z,69.05
2023-02-14T21:57:16.942Z,69.19
2023-02-14T21:59:44.848Z,69.12
2023-02-14T22:02:13.385Z,69.02
2023-02-14T22:04:43.231Z,69.51
2023-02-14T22:07:11.383Z,69.17
2023-02-14T22:09:40.669Z,69.83
2023-02-14T22:12:08.678Z,69.18
2023-02-14T22:14:36.537Z,69.61
2023-02-14T22:17:04.626Z,69.45
2023-02-14T22:19:32.494Z,69.40
2023-02-14T22:22:00.341Z,69.29
2023-02-14T22:24:28.337Z,69.57
2023-02-14T22:26:57.523Z,69.33
2023-02-14T22:29:25.391Z,69.41
2023-02-14T22:31:53.354Z,69.89
2023-02-14T22:34:21.410Z,69.88
2023-02-14T22:36:49.632Z,69.48
2023-02-14T22:39:17.921Z,69.94
2023-02-14T22:41:46.562Z,69.52
2023-02-14T22:44:15.796Z,69.74
2023-02-14T22:46:44.049Z,71.16
2023-02-14T22:49:12.065Z,71.77
2023-02-14T22:51:41.551Z,71.81
2023-02-14T22:54:12.332Z,72.76
2023-02-14T22:56:42.017Z,73.54
2023-02-14T22:59:16.700Z,73.16
2023-02-14T23:01:44.888Z,73.17
2023-02-14T23:04:13.359Z,72.94
2023-02-14T23:06:41.335Z,73.09
2023-02-14T23:09:10.682Z,73.40
2023-02-14T23:11:40.525Z,72.92
2023-02-14T23:14:26.322Z,73.80
2023-02-14T23:17:13.091Z,73.86
2023-02-14T23:20:03.660Z,73.56
2023-02-14T23:22:33.577Z,73.20
2023-02-14T23:25:03.572Z,73.91
2023-02-14T23:27:33.869Z,73.49
2023-02-14T23:30:02.970Z,72.84
2023-02-14T23:32:32.369Z,72.18
2023-02-14T23:35:00.291Z,72.18
2023-02-14T23:37:28.329Z,72.07
2023-02-14T23:39:56.158Z,71.88
2023-02-14T23:42:24.120Z,70.67
2023-02-14T23:44:52.132Z,71.00
2023-02-14T23:47:20.018Z,71.08
2023-02-14T23:49:49.261Z,71.54
2023-02-14T23:52:17.176Z,71.24
2023-02-14T23:54:45.111Z,71.08
2023-02-14T23:57:12.946Z,71.48
2023-02-14T23:59:40.885Z,70.96
